Portada
METAR-TAF:

METAR-TAF

Aeroports :

Aeroport de Cherif Al Idrissi

Al Hoceima, Marroc

latitud: 35-11N, longitud: 003-51W, altitud: 27 m

Observació

L'informe es va fer fa 18 minuts, a les 15:00 UTC
Vent 8 kt del Nord/Nord-Oest
Temperatura 27°C
Humitat 74%
Pressió 1018 hPa
Visibilitat 10 km o més
Escasses núvols a una alçada de 2300 ft

METAR: GMTA 241500Z 34008KT 9999 FEW023 27/22 Q1018 NOSIG

Hora: 16:18 (15:18 UTC)

Pronòstic

L'informe es va fer fa 4 hores i 18 minuts, a les 11:00 UTC
Pronòstic vàlid del 24 a les 12 UTC al 25 a les 18 UTC
Vent 5 kt del Nord
Visibilitat: 8000 m
Núvols disperses a una alçada de 800 ft
Temporalment
l' 25 a les 00 UTC al 25 a les 08 UTC
Vent 2 kt amb direcció variable
Visibilitat: 3000 m
boirina
Evolucionant progressivament
l' 25 a les 09 UTC al 25 a les 11 UTC
Núvols disperses a una alçada de 1500 ft

TAF: GMTA 241100Z 2412/2518 36005KT 8000 SCT008 TEMPO 2500/2508 VRB02KT 3000 BR BECMG 2509/2511 SCT015

Observacions i pronòstics meteorològics de més de 4000 aeroports (METAR i TAF).

Les estacions disponibles són els punts grocs i vermells al mapa.

Posi el ratolí al punt desitjat per veure el nom de l'estació.

Feu clic per veure les observacions i els pronòstics meteorològics.

Per canviar el mapa: feu clic els botons verds amb una creu de color negre per apropar; al botó verd amb un guió per allunyar la imatge; o en les fletxes verdes per a mapes adjacents.


METAR-TAF: